Latest Weather Observations for Kurnell

IDN60901

Issued at 11:21 pm EST Wednesday 12 August 2020 (issued every 10 minutes, with the page automatically refreshed every 10 minutes)

About weather observations | Map of Sydney area stations | Latest observations for Sydney area | Other Formats
Station Details ID: 066043 Name: KURNELL AWS Lat: -34.00 Lon: 151.21 Height: 4.0 m
Data from the previous 72 hours. | See also: Recent months at Kurnell
Date/Time
EST
Temp
°C
App
Temp
°C
Dew
Point
°C
Rel
Hum
%
Delta-T
°C
Wind Press
QNH
hPa
Press
MSL
hPa
Rain since
9am
mm
Dir  Spd
km/h
Gust
km/h
Spd
kts
Gust
kts
12/11:00pm - - - - - CALM 0 0 0 0 - - -
12/10:30pm - - - - - NE 11 13 6 7 - - -
12/10:00pm - - - - - ESE 9 9 5 5 - - -
12/09:30pm - - - - - CALM 0 0 0 0 - - -
12/09:00pm - - - - - WNW 20 26 11 14 - - -
12/08:30pm - - - - - N 13 15 7 8 - - -
12/08:00pm - - - - - NNE 9 11 5 6 - - -
12/07:30pm - - - - - NE 6 7 3 4 - - -
12/07:00pm - - - - - NE 7 9 4 5 - - -
12/06:30pm - - - - - NE 19 20 10 11 - - -
12/06:00pm - - - - - NE 15 17 8 9 - - -
12/05:30pm - - - - - NE 17 19 9 10 - - -
12/05:00pm - - - - - NE 17 19 9 10 - - -
12/04:30pm - - - - - NNE 9 11 5 6 - - -
12/04:00pm - - - - - N 11 15 6 8 - - -
12/03:30pm - - - - - NNW 9 15 5 8 - - -
12/03:00pm - - - - - NE 7 9 4 5 - - -
12/02:30pm - - - - - NNE 2 6 1 3 - - -
12/02:00pm - - - - - ENE 6 7 3 4 - - -
12/01:30pm - - - - - CALM 0 0 0 0 - - -
12/01:00pm - - - - - CALM 0 2 0 1 - - -
12/12:30pm - - - - - NE 6 9 3 5 - - -
12/12:00pm - - - - - NW 11 11 6 6 - - -
12/11:30am - - - - - NNW 11 15 6 8 - - -
12/11:00am - - - - - NW 6 9 3 5 - - -
12/10:30am - - - - - NW 9 11 5 6 - - -
12/10:00am - - - - - NW 7 9 4 5 - - -
12/09:30am - - - - - NNW 6 7 3 4 - - -
12/09:00am - - - - - NW 11 11 6 6 - - -
12/08:30am - - - - - N 9 11 5 6 - - -
12/08:00am - - - - - N 11 13 6 7 - - -
12/07:30am - - - - - NNW 9 11 5 6 - - -
12/07:00am - - - - - N 9 11 5 6 - - -
12/06:30am - - - - - N 9 11 5 6 - - -
12/06:00am - - - - - NW 13 15 7 8 - - -
12/05:30am - - - - - NNW 11 13 6 7 - - -
12/05:00am - - - - - NW 11 15 6 8 - - -
12/04:30am - - - - - NW 13 17 7 9 - - -
12/04:00am - - - - - NW 13 15 7 8 - - -
12/03:30am - - - - - NW 11 15 6 8 - - -
12/03:00am - - - - - NW 9 11 5 6 - - -
12/02:30am - - - - - NW 9 11 5 6 - - -
12/02:00am - - - - - WNW 9 11 5 6 - - -
12/01:30am - - - - - NW 13 15 7 8 - - -
12/01:00am - - - - - WNW 9 11 5 6 - - -
12/12:30am - - - - - WNW 13 15 7 8 - - -
12/12:00am - - - - - W 11 13 6 7 - - -
 
Date/Time
EST
Temp
°C
App
Temp
°C
Dew
Point
°C
Rel
Hum
%
Delta-T
°C
Wind Press
QNH
hPa
Press
MSL
hPa
Rain since
9am
mm
Dir  Spd
km/h
Gust
km/h
Spd
kts
Gust
kts
11/11:30pm - - - - - NNW 9 11 5 6 - - -
11/11:00pm - - - - - NNE 15 15 8 8 - - -
11/10:30pm - - - - - NE 17 20 9 11 - - -
11/10:00pm - - - - - ENE 19 20 10 11 - - -
11/09:30pm - - - - - NE 13 15 7 8 - - -
11/09:00pm - - - - - ENE 15 17 8 9 - - -
11/08:30pm - - - - - ENE 13 19 7 10 - - -
11/08:00pm - - - - - NE 9 13 5 7 - - -
11/07:30pm - - - - - NE 6 7 3 4 - - -
11/07:00pm - - - - - NE 11 13 6 7 - - -
11/06:30pm - - - - - NE 9 11 5 6 - - -
11/06:00pm - - - - - ENE 11 15 6 8 - - -
11/05:30pm - - - - - E 11 13 6 7 - - -
11/05:00pm - - - - - ENE 13 15 7 8 - - -
11/04:30pm - - - - - E 15 17 8 9 - - -
11/04:00pm - - - - - E 13 17 7 9 - - -
11/03:30pm - - - - - E 9 13 5 7 - - -
11/03:00pm - - - - - E 9 13 5 7 - - -
11/02:30pm - - - - - E 13 17 7 9 - - -
11/02:00pm - - - - - ESE 11 15 6 8 - - -
11/01:30pm - - - - - E 13 15 7 8 - - -
11/01:00pm - - - - - CALM 0 0 0 0 - - -
11/12:30pm - - - - - NW 6 9 3 5 - - -
11/12:00pm - - - - - NW 13 15 7 8 - - -
11/11:30am - - - - - NW 11 13 6 7 - - -
11/11:00am - - - - - NW 13 15 7 8 - - -
11/10:30am - - - - - WNW 13 15 7 8 - - -
11/10:00am - - - - - WNW 9 11 5 6 - - -
11/09:30am - - - - - WNW 15 17 8 9 - - -
11/09:00am - - - - - WNW 15 17 8 9 - - -
11/08:30am - - - - - WNW 11 11 6 6 - - -
11/08:00am - - - - - WSW 4 9 2 5 - - -
11/07:30am - - - - - WNW 17 20 9 11 - - -
11/07:00am - - - - - WSW 13 17 7 9 - - -
11/06:30am - - - - - WSW 15 19 8 10 - - -
11/06:00am - - - - - SW 13 17 7 9 - - -
11/05:30am - - - - - SW 19 24 10 13 - - -
11/05:00am - - - - - WSW 17 20 9 11 - - -
11/04:30am - - - - - WSW 19 24 10 13 - - -
11/04:00am - - - - - WSW 19 22 10 12 - - -
11/03:30am - - - - - W 20 26 11 14 - - -
11/03:00am - - - - - WSW 19 24 10 13 - - -
11/02:30am - - - - - WSW 20 28 11 15 - - -
11/02:00am - - - - - SW 24 32 13 17 - - -
11/01:30am - - - - - SW 15 19 8 10 - - -
11/01:00am - - - - - SW 17 22 9 12 - - -
11/12:30am - - - - - SW 19 24 10 13 - - -
11/12:00am - - - - - SW 22 30 12 16 - - -
 
Date/Time
EST
Temp
°C
App
Temp
°C
Dew
Point
°C
Rel
Hum
%
Delta-T
°C
Wind Press
QNH
hPa
Press
MSL
hPa
Rain since
9am
mm
Dir  Spd
km/h
Gust
km/h
Spd
kts
Gust
kts
10/11:30pm - - - - - SW 20 30 11 16 - - -
10/11:00pm - - - - - SW 24 32 13 17 - - -
10/10:30pm - - - - - SW 20 28 11 15 - - -
10/10:00pm - - - - - SW 26 33 14 18 - - -
10/09:30pm - - - - - WSW 20 26 11 14 - - -
10/09:00pm - - - - - SW 30 44 16 24 - - -
10/08:30pm - - - - - SW 28 41 15 22 - - -
10/08:00pm - - - - - SSW 30 41 16 22 - - -
10/07:30pm - - - - - S 28 35 15 19 - - -
10/07:00pm - - - - - SSW 32 41 17 22 - - -
10/06:30pm - - - - - SSW 30 39 16 21 - - -
10/06:00pm - - - - - SSW 35 48 19 26 - - -
10/05:30pm - - - - - SSW 33 48 18 26 - - -
10/05:13pm - - - - - SSW 32 50 17 27 - - -
10/05:00pm - - - - - SSW 35 50 19 27 - - -
10/04:31pm - - - - - S 33 52 18 28 - - -
10/04:30pm - - - - - S 35 52 19 28 - - -
10/04:00pm - - - - - S 33 56 18 30 - - -
10/03:56pm - - - - - S 37 56 20 30 - - -
10/03:30pm - - - - - S 35 50 19 27 - - -
10/03:00pm - - - - - S 39 57 21 31 - - -
10/02:50pm - - - - - S 37 56 20 30 - - -
10/02:30pm - - - - - S 43 59 23 32 - - -
10/02:04pm - - - - - S 41 59 22 32 - - -
10/02:00pm - - - - - S 43 59 23 32 - - -
10/01:30pm - - - - - S 44 63 24 34 - - -
10/01:00pm - - - - - S 41 65 22 35 - - -
10/12:39pm - - - - - S 43 61 23 33 - - -
10/12:30pm - - - - - S 46 59 25 32 - - -
10/12:15pm - - - - - S 44 70 24 38 - - -
10/12:13pm - - - - - S 44 70 24 38 - - -
10/12:01pm - - - - - S 37 57 20 31 - - -
10/12:00pm - - - - - S 35 50 19 27 - - -
10/11:34am - - - - - S 44 63 24 34 - - -
10/11:30am - - - - - S 44 56 24 30 - - -
10/11:10am - - - - - S 41 61 22 33 - - -
10/11:00am - - - - - S 41 57 22 31 - - -
10/10:32am - - - - - S 37 56 20 30 - - -
10/10:30am - - - - - S 39 56 21 30 - - -
10/10:01am - - - - - S 41 61 22 33 - - -
10/10:00am - - - - - S 39 56 21 30 - - -
10/09:30am - - - - - S 43 63 23 34 - - -
10/09:00am - - - - - S 41 59 22 32 - - -
10/08:33am - - - - - S 43 61 23 33 - - -
10/08:30am - - - - - S 43 59 23 32 - - -
10/08:00am - - - - - S 46 72 25 39 - - -
10/07:30am - - - - - SSE 39 69 21 37 - - -
10/07:00am - - - - - SSE 44 70 24 38 - - -
10/06:30am - - - - - SSE 41 59 22 32 - - -
10/06:00am - - - - - S 44 69 24 37 - - -
10/05:33am - - - - - S 43 61 23 33 - - -
10/05:30am - - - - - S 44 57 24 31 - - -
10/05:00am - - - - - SSE 41 67 22 36 - - -
10/04:30am - - - - - SSE 41 61 22 33 - - -
10/04:00am - - - - - SSE 43 69 23 37 - - -
10/03:30am - - - - - SSE 44 63 24 34 - - -
10/03:00am - - - - - SSE 43 63 23 34 - - -
10/02:37am - - - - - SSE 41 59 22 32 - - -
10/02:30am - - - - - SSE 44 59 24 32 - - -
10/02:05am - - - - - SSE 39 57 21 31 - - -
10/02:00am - - - - - SSE 35 50 19 27 - - -
10/01:38am - - - - - SSE 37 56 20 30 - - -
10/01:30am - - - - - SSE 41 56 22 30 - - -
10/01:04am - - - - - SSE 37 56 20 30 - - -
10/01:00am - - - - - SSE 41 56 22 30 - - -
10/12:30am - - - - - SSE 39 52 21 28 - - -
10/12:00am - - - - - SSE 37 50 20 27 - - -
 
Date/Time
EST
Temp
°C
App
Temp
°C
Dew
Point
°C
Rel
Hum
%
Delta-T
°C
Wind Press
QNH
hPa
Press
MSL
hPa
Rain since
9am
mm
Dir  Spd
km/h
Gust
km/h
Spd
kts
Gust
kts
09/11:37pm - - - - - SSE 32 50 17 27 - - -
09/11:30pm - - - - - SSE 32 41 17 22 - - -

Latest Capital City Observations: Canberra | Sydney | Melbourne | Brisbane | Adelaide | Perth | Hobart | Darwin

Other formats

Comma delimited format used in spreadsheet applications
http://www.bom.gov.au/fwo/IDN60901/IDN60901.95756.axf

JavaScript Object Notation format (JSON) in row-major order
http://www.bom.gov.au/fwo/IDN60901/IDN60901.95756.json

Data quality

Most of these data are generated automatically and are frequently updated. Quality checks on data are not normally performed. It is possible for incorrect values to appear. Refer to information at About Latest Weather Observations and please check the disclaimer before using these data.